Latest Weather Observations for Parafield

IDS60801

Issued at 11:35 am CDT Monday 24 November 2014 (issued every 30 minutes, with the page automatically refreshed every 10 minutes)

About weather observations | Map of weather stations | Latest weather observations for SA | Other Formats
Station Details ID: 023013 Name: PARAFIELD AIRPORT Lat: -34.80 Lon: 138.63 Height: 9.5 m
Data from the previous 72 hours. | See also: Recent months at Parafield
Date/Time
CDT
Temp
°C
App
Temp
°C
Dew
Point
Rel
Hum
%
Delta-T
°C
Wind Press
QNH
hPa
Press
MSL
hPa
Rain
since 9 am
mm
Dir
 
Spd
km/h
Gust
km/h
Spd
kts
Gust
kts
24/11:30am 21.5 16.7 11.8 54 5.4 SW 28 43 15 23 1013.6 1013.6 0.0
24/11:00am 22.8 17.8 12.1 51 6.1 SW 30 39 16 21 1013.4 1013.4 0.0
24/10:30am 22.5 18.1 10.3 46 6.7 SW 24 39 13 21 1012.9 1012.9 0.0
24/10:00am 22.1 17.9 9.9 46 6.6 SSW 22 32 12 17 1012.7 1012.7 0.0
24/09:30am 22.1 17.8 10.6 48 6.3 SSW 24 32 13 17 1012.6 1012.6 0.0
24/09:00am 20.8 16.4 10.3 51 5.7 SSW 24 32 13 17 1012.1 1012.1 0.0
24/08:30am 20.8 17.4 10.6 52 5.6 SSW 19 28 10 15 1011.4 1011.4 0.0
24/08:00am 19.8 17.1 11.6 59 4.5 S 17 24 9 13 1010.7 1010.7 0.0
24/07:30am 18.9 14.4 11.5 62 4.1 SSW 26 39 14 21 1009.9 1009.9 0.0
24/07:00am 19.5 17.0 12.3 63 4.0 SSW 17 20 9 11 1008.9 1008.9 0.0
24/06:30am 19.3 19.3 14.3 73 2.9 W 7 17 4 9 1008.1 1008.1 0.0
24/06:00am 18.9 19.1 14.6 76 2.5 W 7 11 4 6 1007.6 1007.6 0.0
24/05:30am 19.4 20.9 14.6 74 2.8 CALM 0 0 0 0 1006.8 1006.8 0.0
24/05:00am 19.5 19.4 13.4 68 3.5 S 6 7 3 4 1006.5 1006.5 0.0
24/04:30am 20.5 18.2 14.2 67 3.7 WSW 19 24 10 13 1006.1 1006.1 0.0
24/04:00am 21.5 22.4 12.9 58 4.9 CALM 0 2 0 1 1005.5 1005.5 0.0
24/03:30am 24.1 22.5 12.7 49 6.6 NNE 13 17 7 9 1005.4 1005.4 0.0
24/03:00am 24.1 21.8 13.0 50 6.4 NE 17 20 9 11 1005.6 1005.6 0.0
24/02:30am 24.2 21.5 12.8 49 6.6 NE 19 24 10 13 1006.2 1006.2 0.0
24/02:00am 25.0 21.3 12.6 46 7.1 NE 24 30 13 16 1006.5 1006.5 0.0
24/01:30am 24.1 21.3 12.7 49 6.6 NE 19 26 10 14 1007.1 1007.1 0.0
24/01:00am 24.1 19.5 12.4 48 6.7 ENE 28 35 15 19 1007.1 1007.1 0.0
24/12:30am 23.2 21.1 12.5 51 6.1 E 15 20 8 11 1007.4 1007.4 0.0
24/12:00am 23.4 21.4 12.7 51 6.1 NE 15 20 8 11 1007.9 1007.9 0.0
 
Date/Time
CDT
Temp
°C
App
Temp
°C
Dew
Point
Rel
Hum
%
Delta-T
°C
Wind Press
QNH
hPa
Press
MSL
hPa
Rain
since 9 am
mm
Dir
 
Spd
km/h
Gust
km/h
Spd
kts
Gust
kts
23/11:30pm 23.3 22.8 12.6 51 6.1 N 7 13 4 7 1008.1 1008.1 0.0
23/11:00pm 23.4 22.5 12.7 51 6.1 ENE 9 15 5 8 1008.0 1008.0 0.0
23/10:30pm 23.9 22.8 11.9 47 6.8 SSW 9 17 5 9 1008.3 1008.3 0.0
23/10:00pm 24.7 23.7 12.3 46 7.1 E 9 19 5 10 1008.6 1008.6 0.0
23/09:30pm 25.0 25.2 11.9 44 7.5 NE 2 7 1 4 1008.4 1008.4 0.0
23/09:00pm 25.3 24.6 11.5 42 7.8 SSE 6 7 3 4 1008.3 1008.3 0.0
23/08:30pm 25.7 25.6 12.2 43 7.8 SW 4 7 2 4 1008.0 1008.0 0.0
23/08:00pm 26.8 24.5 11.7 39 8.6 E 15 28 8 15 1007.6 1007.6 0.0
23/07:30pm 28.1 25.8 11.6 36 9.5 ESE 15 20 8 11 1007.4 1007.4 0.0
23/07:00pm 28.3 26.7 11.4 35 9.7 SE 11 15 6 8 1007.6 1007.6 0.0
23/06:30pm 28.6 25.7 9.8 31 10.5 SSE 15 20 8 11 1008.0 1008.0 0.0
23/06:00pm 28.4 25.3 7.1 26 11.4 SE 13 17 7 9 1008.6 1008.6 0.0
23/05:30pm 27.6 25.2 8.5 30 10.4 S 11 13 6 7 1009.3 1009.3 0.0
23/05:00pm 27.1 24.6 8.0 30 10.3 S 11 17 6 9 1009.5 1009.5 0.0
23/04:30pm 26.6 24.0 7.6 30 10.1 SSE 11 15 6 8 1009.9 1009.9 0.0
23/04:00pm 26.7 23.6 7.2 29 10.3 S 13 19 7 10 1010.9 1010.9 0.0
23/03:30pm 25.7 22.4 8.2 33 9.4 SSW 15 20 8 11 1011.3 1011.3 0.0
23/03:00pm 25.5 21.5 8.9 35 9.0 W 20 26 11 14 1012.4 1012.4 0.0
23/02:30pm 26.0 22.5 11.0 39 8.5 W 20 26 11 14 1012.4 1012.4 0.0
23/02:00pm 26.5 24.1 11.4 39 8.6 WSW 15 20 8 11 1011.5 1011.5 0.0
23/01:30pm 25.8 23.7 11.2 40 8.3 SSW 13 19 7 10 1011.7 1011.7 0.0
23/01:00pm 25.4 22.7 11.6 42 7.8 SW 17 20 9 11 1012.1 1012.1 0.0
23/12:30pm 25.2 23.2 14.0 49 6.6 WSW 17 24 9 13 1012.5 1012.5 0.0
23/12:00pm 24.6 22.5 13.5 50 6.5 WSW 17 22 9 12 1012.5 1012.5 0.0
23/11:30am 24.2 23.7 12.5 48 6.7 W 7 13 4 7 1012.4 1012.4 0.0
23/11:00am 23.7 23.0 13.3 52 6.0 WSW 9 15 5 8 1012.1 1012.1 0.0
23/10:30am 23.1 22.1 13.3 54 5.7 W 11 17 6 9 1012.1 1012.1 0.0
23/10:00am 22.9 22.0 12.5 52 5.9 WNW 9 13 5 7 1011.9 1011.9 0.0
23/09:30am 21.1 20.6 12.0 56 5.1 NE 6 11 3 6 1011.8 1011.8 0.0
23/09:00am 20.4 20.7 12.1 59 4.6 E 2 9 1 5 1012.1 1012.1 12.6
23/08:30am 19.0 18.5 12.0 64 3.9 NE 6 9 3 5 1012.3 1012.3 12.6
23/08:00am 17.7 18.5 12.4 71 2.9 CALM 0 0 0 0 1012.6 1012.6 12.6
23/07:30am 16.5 17.2 12.1 75 2.4 CALM 0 0 0 0 1012.5 1012.5 12.6
23/07:00am 13.8 14.4 12.0 89 1.0 CALM 0 0 0 0 1012.9 1012.9 12.6
23/06:30am 12.4 12.7 11.0 91 0.7 CALM 0 0 0 0 1012.6 1012.6 12.6
23/06:00am 12.2 12.5 10.9 92 0.7 CALM 0 0 0 0 1012.7 1012.7 12.6
23/05:30am 12.4 12.7 11.0 91 0.7 CALM 0 0 0 0 1012.4 1012.4 12.6
23/05:00am 12.5 11.5 10.9 90 0.8 NE 7 9 4 5 1012.4 1012.4 12.6
23/04:30am 12.6 11.7 11.5 93 0.6 NE 7 11 4 6 1012.2 1012.2 12.6
23/04:00am 13.1 13.7 12.0 93 0.6 CALM 0 0 0 0 1011.9 1011.9 12.6
23/03:30am 13.1 13.9 12.5 96 0.3 CALM 0 0 0 0 1012.0 1012.0 12.6
23/03:00am 13.1 13.0 12.0 93 0.6 N 4 6 2 3 1011.7 1011.7 12.6
23/02:30am 13.9 14.0 12.6 92 0.7 NNE 4 7 2 4 1011.9 1011.9 12.6
23/02:00am 14.2 14.3 12.6 90 0.9 ESE 4 6 2 3 1011.9 1011.9 12.6
23/01:30am 14.3 13.8 12.5 89 1.0 S 7 9 4 5 1012.0 1012.0 12.6
23/01:00am 14.5 13.8 13.2 92 0.7 S 9 9 5 5 1012.2 1012.2 12.6
23/12:30am 15.4 16.7 14.1 92 0.7 CALM 0 0 0 0 1012.4 1012.4 12.6
23/12:00am 15.9 17.4 14.6 92 0.7 CALM 0 0 0 0 1012.4 1012.4 12.6
 
Date/Time
CDT
Temp
°C
App
Temp
°C
Dew
Point
Rel
Hum
%
Delta-T
°C
Wind Press
QNH
hPa
Press
MSL
hPa
Rain
since 9 am
mm
Dir
 
Spd
km/h
Gust
km/h
Spd
kts
Gust
kts
22/11:30pm 16.1 17.1 14.3 89 1.0 SE 2 7 1 4 1012.4 1012.4 12.6
22/11:00pm 16.4 16.0 14.2 87 1.3 SE 9 15 5 8 1012.1 1012.1 12.6
22/10:30pm 15.8 15.9 14.5 92 0.7 SSE 7 9 4 5 1011.9 1011.9 12.6
22/10:00pm 16.9 18.6 15.1 89 1.0 CALM 0 2 0 1 1011.5 1011.5 12.6
22/09:30pm 17.6 19.2 15.0 85 1.5 CALM 0 0 0 0 1011.2 1011.2 12.6
22/09:00pm 18.2 19.9 15.1 82 1.8 CALM 0 0 0 0 1010.9 1010.9 12.6
22/08:30pm 17.8 17.9 14.5 81 1.9 WSW 7 9 4 5 1010.4 1010.4 12.6
22/08:00pm 19.6 17.7 14.2 71 3.1 WSW 17 22 9 12 1009.9 1009.9 12.6
22/07:30pm 21.2 19.3 13.1 60 4.6 SW 15 22 8 12 1009.3 1009.3 12.6
22/07:00pm 22.2 19.4 14.3 61 4.6 SW 22 28 12 15 1008.8 1008.8 12.6
22/06:30pm 22.3 18.8 13.4 57 5.1 SSW 24 30 13 16 1008.4 1008.4 12.6
22/06:00pm 22.6 19.7 15.0 62 4.5 SSW 24 30 13 16 1008.1 1008.1 12.6
22/05:30pm 22.7 20.7 16.5 68 3.8 SSW 22 28 12 15 1007.8 1007.8 12.6
22/05:00pm 24.5 23.4 17.7 66 4.2 SW 20 26 11 14 1007.2 1007.2 12.6
22/04:30pm 25.2 25.0 18.4 66 4.3 SW 17 20 9 11 1007.0 1007.0 12.6
22/04:00pm 24.4 25.6 18.3 69 3.8 S 9 11 5 6 1006.9 1006.9 12.6
22/03:30pm 24.2 25.6 17.9 68 4.0 SSW 7 11 4 6 1006.9 1006.9 12.6
22/03:00pm 24.8 27.0 18.3 67 4.1 WSW 4 13 2 7 1006.9 1006.9 12.6
22/02:30pm 24.3 24.7 18.2 68 3.8 N 13 20 7 11 1007.0 1007.0 12.6
22/02:00pm 22.7 23.6 18.5 77 2.6 ENE 11 15 6 8 1006.4 1006.4 12.4
22/01:30pm 25.2 28.4 19.8 72 3.5 NW 2 7 1 4 1007.0 1007.0 10.6
22/01:00pm 26.5 26.2 15.5 50 6.7 E 11 17 6 9 1006.5 1006.5 10.6
22/12:30pm 26.2 25.8 18.1 61 5.1 ENE 17 26 9 14 1006.0 1006.0 10.6
22/12:00pm 23.5 23.2 19.6 79 2.5 NE 20 26 11 14 1006.9 1006.9 10.6
22/11:30am 19.3 19.8 17.4 89 1.2 WSW 11 17 6 9 1008.2 1008.2 9.6
22/11:06am 19.4 19.5 16.6 84 1.7 N 11 20 6 11 1008.0 1008.0 9.0
22/11:00am 19.4 16.9 16.2 82 1.9 W 24 33 13 18 1010.2 1010.2 7.6
22/10:47am 19.5 16.7 17.3 87 1.3 SW 28 52 15 28 1009.1 1009.1 5.4
22/10:43am 19.6 17.9 16.3 81 2.0 SW 20 26 11 14 1009.4 1009.4 3.4
22/10:30am 19.6 18.0 16.6 83 1.8 E 20 26 11 14 1007.2 1007.2 2.4
22/10:00am 20.2 21.3 17.0 82 1.9 NNW 7 13 4 7 1008.9 1008.9 1.8
22/09:30am 19.6 17.7 15.7 78 2.3 ENE 20 26 11 14 1007.9 1007.9 1.6
22/09:24am 19.7 17.7 16.5 82 1.9 ENE 22 24 12 13 1007.5 1007.5 1.6
22/09:13am 19.0 18.1 16.8 87 1.3 E 17 20 9 11 1008.8 1008.8 1.6
22/09:10am 19.0 19.1 16.6 86 1.4 WSW 11 20 6 11 1008.6 1008.6 1.0
22/09:00am 19.5 19.9 16.3 82 1.9 SW 9 20 5 11 1010.8 1010.8 -
22/08:30am 19.3 19.6 16.0 81 2.0 NNE 9 20 5 11 1008.7 1008.7 -
22/08:00am 19.9 19.7 15.7 77 2.5 E 11 15 6 8 1008.8 1008.8 -
22/07:30am 18.2 16.5 14.7 80 2.0 S 17 19 9 10 1008.9 1008.9 -
22/07:00am 19.9 19.0 12.7 63 4.1 ESE 9 15 5 8 1007.2 1007.2 -
22/06:30am 22.3 18.6 10.1 46 6.7 NNE 20 30 11 16 1006.7 1006.7 -
22/06:00am 23.4 17.6 7.9 37 8.2 NNE 28 39 15 21 1006.6 1006.6 -
22/05:30am 23.6 19.0 8.1 37 8.2 NNE 22 30 12 16 1007.5 1007.5 -
22/05:00am 25.5 19.1 5.1 27 10.3 NNE 28 37 15 20 1005.7 1005.7 -
22/04:30am 25.4 19.5 5.6 28 10.2 NNE 26 32 14 17 1005.3 1005.3 -
22/04:00am 24.5 19.0 5.8 30 9.5 NE 24 32 13 17 1005.2 1005.2 -
22/03:30am 24.4 18.9 5.7 30 9.5 NE 24 28 13 15 1005.8 1005.8 -
22/03:00am 24.2 18.1 4.6 28 9.8 NE 26 33 14 18 1005.8 1005.8 0.0
22/02:30am 23.6 18.3 5.0 30 9.3 NNE 22 30 12 16 1006.0 1006.0 -
22/02:00am 23.2 18.0 5.6 32 8.9 NE 22 28 12 15 1006.5 1006.5 -
22/01:30am 23.3 18.1 5.7 32 8.9 NE 22 28 12 15 1006.7 1006.7 -
22/01:00am 22.7 18.0 6.0 34 8.5 NE 20 24 11 13 1007.1 1007.1 -
22/12:30am 22.8 18.6 5.7 33 8.6 NE 17 20 9 11 1007.7 1007.7 -
22/12:00am 22.9 19.5 5.8 33 8.7 NE 13 15 7 8 1008.4 1008.4 -
 
Date/Time
CDT
Temp
°C
App
Temp
°C
Dew
Point
Rel
Hum
%
Delta-T
°C
Wind Press
QNH
hPa
Press
MSL
hPa
Rain
since 9 am
mm
Dir
 
Spd
km/h
Gust
km/h
Spd
kts
Gust
kts
21/11:30pm 23.5 19.2 5.4 31 9.1 ENE 17 20 9 11 1008.6 1008.6 -
21/11:00pm 22.7 19.1 5.2 32 8.7 ENE 13 20 7 11 1009.0 1009.0 -
21/10:30pm 22.4 18.5 5.4 33 8.5 E 15 20 8 11 1009.5 1009.5 -
21/10:00pm 21.1 19.5 8.7 45 6.5 NNE 7 9 4 5 1010.0 1010.0 -
21/09:30pm 21.2 19.6 8.8 45 6.6 E 7 9 4 5 1010.1 1010.1 -
21/09:00pm 21.6 19.7 9.2 45 6.6 ESE 9 11 5 6 1010.1 1010.1 0.0
21/08:30pm 23.4 22.5 6.2 33 8.8 CALM 0 0 0 0 1010.4 1010.4 -
21/08:00pm 24.3 23.2 5.1 29 9.7 CALM 0 0 0 0 1010.3 1010.3 -
21/07:30pm 24.4 23.6 6.6 32 9.2 CALM 0 0 0 0 1010.2 1010.2 -
21/07:00pm 26.0 23.7 5.6 27 10.5 W 7 9 4 5 1010.1 1010.1 -
21/06:30pm 26.5 23.6 4.9 25 11.0 SW 9 11 5 6 1009.9 1009.9 -
21/06:00pm 26.5 24.0 4.9 25 11.0 WSW 7 13 4 7 1010.2 1010.2 -
21/05:30pm 26.3 24.0 5.8 27 10.6 S 7 15 4 8 1010.2 1010.2 -
21/05:00pm 26.5 24.0 6.5 28 10.5 SW 9 15 5 8 1010.4 1010.4 -
21/04:30pm 25.2 21.9 6.4 30 9.7 W 13 20 7 11 1010.7 1010.7 -
21/04:00pm 25.2 21.9 6.4 30 9.7 WNW 13 22 7 12 1010.8 1010.8 -
21/03:30pm 25.0 22.5 8.1 34 9.0 WSW 11 19 6 10 1011.0 1011.0 -
21/03:00pm 25.0 21.7 6.2 30 9.7 WSW 13 19 7 10 1011.4 1011.4 -
21/02:30pm 24.8 21.9 6.5 31 9.5 WSW 11 19 6 10 1011.5 1011.5 -
21/02:00pm 24.0 20.8 6.7 33 8.9 WSW 13 26 7 14 1012.2 1012.2 -
21/01:30pm 23.2 20.7 8.1 38 8.0 W 11 20 6 11 1012.8 1012.8 -
21/01:00pm 22.7 19.1 6.9 36 8.1 WNW 15 22 8 12 1013.0 1013.0 -
21/12:30pm 21.3 17.3 8.2 43 6.8 NW 19 24 10 13 1013.4 1013.4 -
21/12:00pm 22.3 19.6 8.8 42 7.2 WSW 13 20 7 11 1013.5 1013.5 0.0

Other Formats:

Comma delimited format used in spreadsheet applications
http://www.bom.gov.au/fwo/IDS60801/IDS60801.95677.axf

JavaScript Object Notation format (JSON) in row-major order
http://www.bom.gov.au/fwo/IDS60801/IDS60801.95677.json